sensor_id;sensor_type;location;lat;lon;timestamp;P1;durP1;ratioP1;P2;durP2;ratioP2
5955;SDS011;3004;48.080;11.600;2023-05-10T00:00:17;75.90;;;6.73;;
5955;SDS011;3004;48.080;11.600;2023-05-10T00:02:45;76.10;;;6.70;;
5955;SDS011;3004;48.080;11.600;2023-05-10T00:05:15;75.50;;;6.73;;
5955;SDS011;3004;48.080;11.600;2023-05-10T00:07:42;76.07;;;6.97;;
5955;SDS011;3004;48.080;11.600;2023-05-10T00:10:11;75.80;;;6.77;;
5955;SDS011;3004;48.080;11.600;2023-05-10T00:12:38;76.10;;;6.90;;
5955;SDS011;3004;48.080;11.600;2023-05-10T00:15:10;75.80;;;6.90;;
5955;SDS011;3004;48.080;11.600;2023-05-10T00:17:41;77.00;;;7.40;;
5955;SDS011;3004;48.080;11.600;2023-05-10T00:20:12;75.70;;;6.87;;
5955;SDS011;3004;48.080;11.600;2023-05-10T00:22:43;76.00;;;6.87;;
5955;SDS011;3004;48.080;11.600;2023-05-10T00:25:21;76.47;;;8.03;;
5955;SDS011;3004;48.080;11.600;2023-05-10T00:27:55;75.80;;;7.00;;
5955;SDS011;3004;48.080;11.600;2023-05-10T00:30:53;75.50;;;6.93;;
5955;SDS011;3004;48.080;11.600;2023-05-10T00:33:28;75.97;;;6.80;;
5955;SDS011;3004;48.080;11.600;2023-05-10T00:36:07;75.90;;;7.00;;
5955;SDS011;3004;48.080;11.600;2023-05-10T00:39:03;75.60;;;7.40;;
5955;SDS011;3004;48.080;11.600;2023-05-10T00:41:38;75.67;;;7.20;;
5955;SDS011;3004;48.080;11.600;2023-05-10T00:44:48;75.70;;;7.13;;
5955;SDS011;3004;48.080;11.600;2023-05-10T00:47:45;75.37;;;7.13;;
5955;SDS011;3004;48.080;11.600;2023-05-10T00:50:36;75.50;;;7.17;;
5955;SDS011;3004;48.080;11.600;2023-05-10T00:53:16;75.00;;;7.07;;
5955;SDS011;3004;48.080;11.600;2023-05-10T00:56:07;75.27;;;7.20;;
5955;SDS011;3004;48.080;11.600;2023-05-10T00:58:37;74.90;;;7.13;;
5955;SDS011;3004;48.080;11.600;2023-05-10T01:01:09;75.30;;;7.17;;
5955;SDS011;3004;48.080;11.600;2023-05-10T01:07:11;77.80;;;8.90;;
5955;SDS011;3004;48.080;11.600;2023-05-10T01:12:40;74.63;;;7.37;;
5955;SDS011;3004;48.080;11.600;2023-05-10T01:15:12;74.60;;;7.40;;
5955;SDS011;3004;48.080;11.600;2023-05-10T01:17:43;74.27;;;7.40;;
5955;SDS011;3004;48.080;11.600;2023-05-10T01:20:31;74.30;;;7.40;;
5955;SDS011;3004;48.080;11.600;2023-05-10T01:32:52;73.90;;;7.53;;
5955;SDS011;3004;48.080;11.600;2023-05-10T01:35:39;74.17;;;7.47;;
5955;SDS011;3004;48.080;11.600;2023-05-10T01:38:16;74.00;;;7.57;;
5955;SDS011;3004;48.080;11.600;2023-05-10T01:40:51;74.47;;;7.70;;
5955;SDS011;3004;48.080;11.600;2023-05-10T01:43:34;73.90;;;7.47;;
5955;SDS011;3004;48.080;11.600;2023-05-10T01:46:14;74.17;;;7.50;;
5955;SDS011;3004;48.080;11.600;2023-05-10T01:49:07;73.67;;;7.70;;
5955;SDS011;3004;48.080;11.600;2023-05-10T01:51:53;73.90;;;7.60;;
5955;SDS011;3004;48.080;11.600;2023-05-10T01:54:26;73.50;;;7.57;;
5955;SDS011;3004;48.080;11.600;2023-05-10T01:57:06;74.07;;;7.53;;
5955;SDS011;3004;48.080;11.600;2023-05-10T01:59:40;73.77;;;7.50;;
5955;SDS011;3004;48.080;11.600;2023-05-10T02:02:12;73.63;;;7.50;;
5955;SDS011;3004;48.080;11.600;2023-05-10T02:04:45;73.70;;;7.47;;
5955;SDS011;3004;48.080;11.600;2023-05-10T02:07:15;74.20;;;7.50;;
5955;SDS011;3004;48.080;11.600;2023-05-10T02:09:49;74.07;;;7.57;;
5955;SDS011;3004;48.080;11.600;2023-05-10T02:12:24;73.40;;;7.53;;
5955;SDS011;3004;48.080;11.600;2023-05-10T02:18:08;73.97;;;7.60;;
5955;SDS011;3004;48.080;11.600;2023-05-10T02:23:26;73.57;;;7.70;;
5955;SDS011;3004;48.080;11.600;2023-05-10T02:26:01;73.60;;;7.67;;
5955;SDS011;3004;48.080;11.600;2023-05-10T02:28:45;73.47;;;7.67;;
5955;SDS011;3004;48.080;11.600;2023-05-10T02:31:27;73.70;;;7.73;;
5955;SDS011;3004;48.080;11.600;2023-05-10T02:33:57;73.70;;;7.73;;
5955;SDS011;3004;48.080;11.600;2023-05-10T02:36:47;73.77;;;7.70;;
5955;SDS011;3004;48.080;11.600;2023-05-10T02:39:40;73.70;;;7.67;;
5955;SDS011;3004;48.080;11.600;2023-05-10T02:42:22;73.77;;;7.77;;
5955;SDS011;3004;48.080;11.600;2023-05-10T02:45:01;73.50;;;7.67;;
5955;SDS011;3004;48.080;11.600;2023-05-10T02:47:50;73.77;;;7.70;;
5955;SDS011;3004;48.080;11.600;2023-05-10T02:51:40;73.77;;;7.73;;
5955;SDS011;3004;48.080;11.600;2023-05-10T02:54:29;73.53;;;7.80;;
5955;SDS011;3004;48.080;11.600;2023-05-10T02:57:34;73.30;;;7.73;;
5955;SDS011;3004;48.080;11.600;2023-05-10T03:01:03;73.30;;;7.83;;
5955;SDS011;3004;48.080;11.600;2023-05-10T03:03:59;73.37;;;7.73;;
5955;SDS011;3004;48.080;11.600;2023-05-10T03:06:43;73.30;;;7.73;;
5955;SDS011;3004;48.080;11.600;2023-05-10T03:09:12;72.90;;;7.77;;
5955;SDS011;3004;48.080;11.600;2023-05-10T03:15:03;72.90;;;7.90;;
5955;SDS011;3004;48.080;11.600;2023-05-10T03:17:57;72.97;;;7.90;;
5955;SDS011;3004;48.080;11.600;2023-05-10T03:27:50;72.37;;;7.87;;
5955;SDS011;3004;48.080;11.600;2023-05-10T03:30:24;72.70;;;7.87;;
5955;SDS011;3004;48.080;11.600;2023-05-10T03:36:11;74.47;;;9.43;;
5955;SDS011;3004;48.080;11.600;2023-05-10T03:38:57;72.57;;;7.93;;
5955;SDS011;3004;48.080;11.600;2023-05-10T03:41:40;72.10;;;8.00;;
5955;SDS011;3004;48.080;11.600;2023-05-10T03:44:33;72.60;;;8.00;;
5955;SDS011;3004;48.080;11.600;2023-05-10T03:49:51;72.47;;;8.13;;
5955;SDS011;3004;48.080;11.600;2023-05-10T03:53:43;72.37;;;8.17;;
5955;SDS011;3004;48.080;11.600;2023-05-10T03:55:55;71.97;;;8.17;;
5955;SDS011;3004;48.080;11.600;2023-05-10T03:58:44;72.27;;;8.17;;
5955;SDS011;3004;48.080;11.600;2023-05-10T04:01:21;72.03;;;8.10;;
5955;SDS011;3004;48.080;11.600;2023-05-10T04:17:46;72.07;;;8.47;;
5955;SDS011;3004;48.080;11.600;2023-05-10T04:20:24;71.80;;;8.27;;
5955;SDS011;3004;48.080;11.600;2023-05-10T04:22:59;71.70;;;8.23;;
5955;SDS011;3004;48.080;11.600;2023-05-10T04:25:42;71.77;;;8.27;;
5955;SDS011;3004;48.080;11.600;2023-05-10T05:17:43;71.37;;;8.63;;
5955;SDS011;3004;48.080;11.600;2023-05-10T05:20:12;71.40;;;8.57;;
5955;SDS011;3004;48.080;11.600;2023-05-10T05:22:40;71.10;;;8.60;;
5955;SDS011;3004;48.080;11.600;2023-05-10T05:25:08;71.30;;;8.60;;
5955;SDS011;3004;48.080;11.600;2023-05-10T05:27:35;71.50;;;8.50;;
5955;SDS011;3004;48.080;11.600;2023-05-10T05:30:02;71.10;;;8.57;;
5955;SDS011;3004;48.080;11.600;2023-05-10T05:35:52;70.90;;;8.67;;
5955;SDS011;3004;48.080;11.600;2023-05-10T05:38:31;70.97;;;8.60;;
5955;SDS011;3004;48.080;11.600;2023-05-10T05:41:01;71.03;;;8.60;;
5955;SDS011;3004;48.080;11.600;2023-05-10T05:43:28;71.17;;;8.63;;
5955;SDS011;3004;48.080;11.600;2023-05-10T05:52:34;71.37;;;8.53;;
5955;SDS011;3004;48.080;11.600;2023-05-10T05:55:10;71.73;;;8.47;;
5955;SDS011;3004;48.080;11.600;2023-05-10T05:57:49;71.13;;;8.60;;
5955;SDS011;3004;48.080;11.600;2023-05-10T06:03:01;70.53;;;8.83;;
5955;SDS011;3004;48.080;11.600;2023-05-10T06:05:35;70.03;;;8.90;;
5955;SDS011;3004;48.080;11.600;2023-05-10T06:08:25;69.63;;;9.03;;
5955;SDS011;3004;48.080;11.600;2023-05-10T06:10:53;69.90;;;9.47;;
5955;SDS011;3004;48.080;11.600;2023-05-10T06:13:22;69.30;;;9.13;;
5955;SDS011;3004;48.080;11.600;2023-05-10T06:16:00;69.17;;;9.17;;
5955;SDS011;3004;48.080;11.600;2023-05-10T06:18:28;69.47;;;9.37;;
5955;SDS011;3004;48.080;11.600;2023-05-10T06:20:57;69.27;;;9.37;;
5955;SDS011;3004;48.080;11.600;2023-05-10T06:23:26;69.07;;;9.37;;
5955;SDS011;3004;48.080;11.600;2023-05-10T06:25:54;68.70;;;9.37;;
5955;SDS011;3004;48.080;11.600;2023-05-10T06:28:21;68.77;;;9.33;;
5955;SDS011;3004;48.080;11.600;2023-05-10T06:30:48;68.53;;;9.47;;
5955;SDS011;3004;48.080;11.600;2023-05-10T06:33:17;68.27;;;9.57;;
5955;SDS011;3004;48.080;11.600;2023-05-10T06:35:44;67.97;;;9.67;;
5955;SDS011;3004;48.080;11.600;2023-05-10T06:38:11;67.83;;;9.67;;
5955;SDS011;3004;48.080;11.600;2023-05-10T06:40:40;67.67;;;9.70;;
5955;SDS011;3004;48.080;11.600;2023-05-10T06:43:09;67.67;;;9.83;;
5955;SDS011;3004;48.080;11.600;2023-05-10T06:45:37;67.57;;;9.73;;
5955;SDS011;3004;48.080;11.600;2023-05-10T06:48:07;67.23;;;9.87;;
5955;SDS011;3004;48.080;11.600;2023-05-10T06:50:34;67.10;;;9.97;;
5955;SDS011;3004;48.080;11.600;2023-05-10T06:53:01;66.73;;;10.07;;
5955;SDS011;3004;48.080;11.600;2023-05-10T06:55:28;67.23;;;10.50;;
5955;SDS011;3004;48.080;11.600;2023-05-10T06:57:55;67.30;;;9.97;;
5955;SDS011;3004;48.080;11.600;2023-05-10T07:00:24;67.33;;;9.87;;
5955;SDS011;3004;48.080;11.600;2023-05-10T07:02:56;67.40;;;9.77;;
5955;SDS011;3004;48.080;11.600;2023-05-10T07:05:28;67.73;;;9.73;;
5955;SDS011;3004;48.080;11.600;2023-05-10T07:07:58;67.73;;;9.73;;
5955;SDS011;3004;48.080;11.600;2023-05-10T07:10:25;68.03;;;9.67;;
5955;SDS011;3004;48.080;11.600;2023-05-10T07:12:52;68.00;;;9.73;;
5955;SDS011;3004;48.080;11.600;2023-05-10T07:15:26;68.60;;;9.47;;
5955;SDS011;3004;48.080;11.600;2023-05-10T07:17:53;68.80;;;9.47;;
5955;SDS011;3004;48.080;11.600;2023-05-10T07:20:20;68.77;;;9.47;;
5955;SDS011;3004;48.080;11.600;2023-05-10T07:22:47;68.83;;;9.47;;
5955;SDS011;3004;48.080;11.600;2023-05-10T07:25:23;68.97;;;9.57;;
5955;SDS011;3004;48.080;11.600;2023-05-10T07:27:51;68.57;;;9.47;;
5955;SDS011;3004;48.080;11.600;2023-05-10T07:30:18;69.07;;;9.43;;
5955;SDS011;3004;48.080;11.600;2023-05-10T07:32:46;69.63;;;9.27;;
5955;SDS011;3004;48.080;11.600;2023-05-10T07:35:14;70.07;;;9.23;;
5955;SDS011;3004;48.080;11.600;2023-05-10T07:37:44;70.50;;;8.97;;
5955;SDS011;3004;48.080;11.600;2023-05-10T07:40:11;70.77;;;8.87;;
5955;SDS011;3004;48.080;11.600;2023-05-10T07:42:38;71.37;;;8.80;;
5955;SDS011;3004;48.080;11.600;2023-05-10T07:45:06;71.63;;;8.60;;
5955;SDS011;3004;48.080;11.600;2023-05-10T07:47:36;71.57;;;8.67;;
5955;SDS011;3004;48.080;11.600;2023-05-10T07:50:06;71.10;;;8.67;;
5955;SDS011;3004;48.080;11.600;2023-05-10T07:52:39;76.43;;;9.77;;
5955;SDS011;3004;48.080;11.600;2023-05-10T07:55:07;71.70;;;8.73;;
5955;SDS011;3004;48.080;11.600;2023-05-10T07:57:35;71.50;;;8.60;;
5955;SDS011;3004;48.080;11.600;2023-05-10T08:00:05;71.90;;;8.53;;
5955;SDS011;3004;48.080;11.600;2023-05-10T08:02:33;73.07;;;8.27;;
5955;SDS011;3004;48.080;11.600;2023-05-10T08:05:01;73.47;;;8.00;;
5955;SDS011;3004;48.080;11.600;2023-05-10T08:14:06;74.00;;;7.63;;
5955;SDS011;3004;48.080;11.600;2023-05-10T08:16:49;74.00;;;7.67;;
5955;SDS011;3004;48.080;11.600;2023-05-10T08:19:37;74.10;;;7.63;;
5955;SDS011;3004;48.080;11.600;2023-05-10T08:32:40;74.93;;;6.90;;
5955;SDS011;3004;48.080;11.600;2023-05-10T08:35:55;75.00;;;7.03;;
5955;SDS011;3004;48.080;11.600;2023-05-10T08:38:25;75.10;;;7.10;;
5955;SDS011;3004;48.080;11.600;2023-05-10T08:41:04;75.20;;;7.23;;
5955;SDS011;3004;48.080;11.600;2023-05-10T08:53:58;74.60;;;6.83;;
5955;SDS011;3004;48.080;11.600;2023-05-10T08:56:26;75.27;;;6.90;;
5955;SDS011;3004;48.080;11.600;2023-05-10T08:58:59;75.10;;;6.97;;
5955;SDS011;3004;48.080;11.600;2023-05-10T09:01:26;74.80;;;7.00;;
5955;SDS011;3004;48.080;11.600;2023-05-10T09:03:54;75.10;;;7.20;;
5955;SDS011;3004;48.080;11.600;2023-05-10T09:06:30;75.10;;;7.27;;
5955;SDS011;3004;48.080;11.600;2023-05-10T09:08:59;74.90;;;7.30;;
5955;SDS011;3004;48.080;11.600;2023-05-10T09:11:28;74.50;;;7.43;;
5955;SDS011;3004;48.080;11.600;2023-05-10T09:14:01;74.67;;;7.50;;
5955;SDS011;3004;48.080;11.600;2023-05-10T09:16:30;74.60;;;7.47;;
5955;SDS011;3004;48.080;11.600;2023-05-10T09:18:59;74.40;;;7.40;;
5955;SDS011;3004;48.080;11.600;2023-05-10T09:21:26;74.67;;;7.50;;
5955;SDS011;3004;48.080;11.600;2023-05-10T09:24:01;74.23;;;7.53;;
5955;SDS011;3004;48.080;11.600;2023-05-10T09:26:34;74.20;;;7.60;;
5955;SDS011;3004;48.080;11.600;2023-05-10T09:29:02;74.63;;;7.60;;
5955;SDS011;3004;48.080;11.600;2023-05-10T09:31:46;74.20;;;7.50;;
5955;SDS011;3004;48.080;11.600;2023-05-10T09:34:16;74.43;;;7.60;;
5955;SDS011;3004;48.080;11.600;2023-05-10T09:36:52;73.70;;;7.67;;
5955;SDS011;3004;48.080;11.600;2023-05-10T09:39:22;73.67;;;7.80;;
5955;SDS011;3004;48.080;11.600;2023-05-10T09:41:59;73.47;;;7.70;;
5955;SDS011;3004;48.080;11.600;2023-05-10T09:44:28;73.60;;;7.80;;
5955;SDS011;3004;48.080;11.600;2023-05-10T09:46:56;73.30;;;7.87;;
5955;SDS011;3004;48.080;11.600;2023-05-10T09:49:23;74.27;;;9.17;;
5955;SDS011;3004;48.080;11.600;2023-05-10T09:52:00;72.77;;;8.13;;
5955;SDS011;3004;48.080;11.600;2023-05-10T09:54:30;73.80;;;7.70;;
5955;SDS011;3004;48.080;11.600;2023-05-10T09:57:00;74.57;;;7.60;;
5955;SDS011;3004;48.080;11.600;2023-05-10T09:59:32;75.10;;;7.00;;
5955;SDS011;3004;48.080;11.600;2023-05-10T10:02:08;74.47;;;6.40;;
5955;SDS011;3004;48.080;11.600;2023-05-10T10:14:58;72.70;;;5.50;;
5955;SDS011;3004;48.080;11.600;2023-05-10T10:17:32;73.00;;;5.53;;
5955;SDS011;3004;48.080;11.600;2023-05-10T10:20:05;74.00;;;6.00;;
5955;SDS011;3004;48.080;11.600;2023-05-10T10:22:33;74.37;;;6.20;;
5955;SDS011;3004;48.080;11.600;2023-05-10T10:25:00;74.20;;;6.03;;
5955;SDS011;3004;48.080;11.600;2023-05-10T10:27:29;74.40;;;6.17;;
5955;SDS011;3004;48.080;11.600;2023-05-10T11:22:23;74.13;;;6.00;;
5955;SDS011;3004;48.080;11.600;2023-05-10T11:24:58;74.50;;;5.80;;
5955;SDS011;3004;48.080;11.600;2023-05-10T11:27:25;74.90;;;6.13;;
5955;SDS011;3004;48.080;11.600;2023-05-10T11:29:52;75.47;;;6.67;;
5955;SDS011;3004;48.080;11.600;2023-05-10T11:32:19;75.63;;;6.90;;
5955;SDS011;3004;48.080;11.600;2023-05-10T11:34:47;75.87;;;7.00;;
5955;SDS011;3004;48.080;11.600;2023-05-10T11:37:17;75.57;;;7.40;;
5955;SDS011;3004;48.080;11.600;2023-05-10T11:39:48;74.87;;;7.33;;
5955;SDS011;3004;48.080;11.600;2023-05-10T11:42:16;74.87;;;7.47;;
5955;SDS011;3004;48.080;11.600;2023-05-10T11:44:45;74.60;;;8.20;;
5955;SDS011;3004;48.080;11.600;2023-05-10T11:47:16;74.00;;;7.70;;
5955;SDS011;3004;48.080;11.600;2023-05-10T11:49:43;74.40;;;7.53;;
5955;SDS011;3004;48.080;11.600;2023-05-10T11:52:20;74.20;;;7.53;;
5955;SDS011;3004;48.080;11.600;2023-05-10T11:54:52;74.27;;;7.63;;
5955;SDS011;3004;48.080;11.600;2023-05-10T11:57:20;74.17;;;8.10;;
5955;SDS011;3004;48.080;11.600;2023-05-10T11:59:55;73.90;;;7.83;;
5955;SDS011;3004;48.080;11.600;2023-05-10T12:02:35;74.60;;;8.40;;
5955;SDS011;3004;48.080;11.600;2023-05-10T12:05:08;73.20;;;7.97;;
5955;SDS011;3004;48.080;11.600;2023-05-10T12:07:39;73.33;;;7.97;;
5955;SDS011;3004;48.080;11.600;2023-05-10T12:10:14;73.10;;;7.97;;
5955;SDS011;3004;48.080;11.600;2023-05-10T12:19:21;72.20;;;8.20;;
5955;SDS011;3004;48.080;11.600;2023-05-10T12:21:59;72.30;;;8.17;;
5955;SDS011;3004;48.080;11.600;2023-05-10T12:24:31;72.47;;;8.23;;
5955;SDS011;3004;48.080;11.600;2023-05-10T12:27:09;76.43;;;9.07;;
5955;SDS011;3004;48.080;11.600;2023-05-10T12:29:37;71.60;;;8.37;;
5955;SDS011;3004;48.080;11.600;2023-05-10T12:32:11;71.77;;;8.47;;
5955;SDS011;3004;48.080;11.600;2023-05-10T12:34:41;71.40;;;8.47;;
5955;SDS011;3004;48.080;11.600;2023-05-10T12:37:08;71.27;;;8.53;;
5955;SDS011;3004;48.080;11.600;2023-05-10T12:39:41;71.07;;;8.67;;
5955;SDS011;3004;48.080;11.600;2023-05-10T12:42:14;71.27;;;8.67;;
5955;SDS011;3004;48.080;11.600;2023-05-10T12:44:41;70.87;;;8.70;;
5955;SDS011;3004;48.080;11.600;2023-05-10T12:47:08;70.87;;;8.67;;
5955;SDS011;3004;48.080;11.600;2023-05-10T12:49:36;70.90;;;8.80;;
5955;SDS011;3004;48.080;11.600;2023-05-10T12:52:03;70.67;;;8.77;;
5955;SDS011;3004;48.080;11.600;2023-05-10T12:54:30;70.60;;;8.77;;
5955;SDS011;3004;48.080;11.600;2023-05-10T12:56:57;70.57;;;8.77;;
5955;SDS011;3004;48.080;11.600;2023-05-10T12:59:29;70.73;;;8.73;;
5955;SDS011;3004;48.080;11.600;2023-05-10T13:02:00;71.00;;;8.70;;
5955;SDS011;3004;48.080;11.600;2023-05-10T13:04:28;70.90;;;8.83;;
5955;SDS011;3004;48.080;11.600;2023-05-10T13:07:02;74.63;;;10.43;;
5955;SDS011;3004;48.080;11.600;2023-05-10T13:09:46;70.77;;;8.77;;
5955;SDS011;3004;48.080;11.600;2023-05-10T13:12:13;70.70;;;8.77;;
5955;SDS011;3004;48.080;11.600;2023-05-10T13:14:47;70.60;;;8.77;;
5955;SDS011;3004;48.080;11.600;2023-05-10T13:17:17;70.77;;;8.77;;
5955;SDS011;3004;48.080;11.600;2023-05-10T13:20:04;70.77;;;8.80;;
5955;SDS011;3004;48.080;11.600;2023-05-10T13:22:35;70.37;;;8.83;;
5955;SDS011;3004;48.080;11.600;2023-05-10T13:25:06;70.60;;;8.73;;
5955;SDS011;3004;48.080;11.600;2023-05-10T13:27:36;70.47;;;8.83;;
5955;SDS011;3004;48.080;11.600;2023-05-10T13:30:09;70.33;;;8.90;;
5955;SDS011;3004;48.080;11.600;2023-05-10T13:32:39;70.00;;;8.97;;
5955;SDS011;3004;48.080;11.600;2023-05-10T13:35:06;70.17;;;8.93;;
5955;SDS011;3004;48.080;11.600;2023-05-10T13:40:27;70.17;;;8.93;;
5955;SDS011;3004;48.080;11.600;2023-05-10T13:43:02;70.37;;;8.93;;
5955;SDS011;3004;48.080;11.600;2023-05-10T13:45:44;70.27;;;8.90;;
5955;SDS011;3004;48.080;11.600;2023-05-10T13:48:11;70.53;;;9.00;;
5955;SDS011;3004;48.080;11.600;2023-05-10T13:50:49;70.23;;;8.93;;
5955;SDS011;3004;48.080;11.600;2023-05-10T13:53:33;69.87;;;8.97;;
5955;SDS011;3004;48.080;11.600;2023-05-10T13:56:07;69.83;;;9.00;;
5955;SDS011;3004;48.080;11.600;2023-05-10T13:58:48;69.87;;;9.03;;
5955;SDS011;3004;48.080;11.600;2023-05-10T14:04:54;69.83;;;9.10;;
5955;SDS011;3004;48.080;11.600;2023-05-10T14:07:16;69.63;;;9.07;;
5955;SDS011;3004;48.080;11.600;2023-05-10T14:09:54;69.47;;;9.10;;
5955;SDS011;3004;48.080;11.600;2023-05-10T14:12:40;69.33;;;9.17;;
5955;SDS011;3004;48.080;11.600;2023-05-10T14:15:53;69.37;;;9.30;;
5955;SDS011;3004;48.080;11.600;2023-05-10T14:21:46;69.17;;;9.20;;
5955;SDS011;3004;48.080;11.600;2023-05-10T14:28:00;69.13;;;9.33;;
5955;SDS011;3004;48.080;11.600;2023-05-10T14:31:36;69.13;;;9.27;;
5955;SDS011;3004;48.080;11.600;2023-05-10T14:49:24;68.67;;;9.27;;
5955;SDS011;3004;48.080;11.600;2023-05-10T14:53:31;69.07;;;9.17;;
5955;SDS011;3004;48.080;11.600;2023-05-10T14:59:08;69.17;;;9.17;;
5955;SDS011;3004;48.080;11.600;2023-05-10T15:01:55;68.97;;;9.17;;
5955;SDS011;3004;48.080;11.600;2023-05-10T15:04:36;69.27;;;9.17;;
5955;SDS011;3004;48.080;11.600;2023-05-10T15:07:41;69.37;;;9.07;;
5955;SDS011;3004;48.080;11.600;2023-05-10T15:10:24;70.40;;;9.20;;
5955;SDS011;3004;48.080;11.600;2023-05-10T15:19:37;69.27;;;9.07;;
5955;SDS011;3004;48.080;11.600;2023-05-10T15:59:12;68.27;;;9.33;;
5955;SDS011;3004;48.080;11.600;2023-05-10T16:01:44;68.33;;;9.27;;
5955;SDS011;3004;48.080;11.600;2023-05-10T16:04:21;68.40;;;9.27;;
5955;SDS011;3004;48.080;11.600;2023-05-10T16:06:57;68.43;;;9.37;;
5955;SDS011;3004;48.080;11.600;2023-05-10T16:09:31;68.43;;;9.37;;
5955;SDS011;3004;48.080;11.600;2023-05-10T16:16:28;68.30;;;9.47;;
5955;SDS011;3004;48.080;11.600;2023-05-10T16:19:27;68.07;;;9.43;;
5955;SDS011;3004;48.080;11.600;2023-05-10T16:22:39;68.13;;;9.40;;
5955;SDS011;3004;48.080;11.600;2023-05-10T16:28:37;68.20;;;9.40;;
